createdAt,value
2019-01-11T00:02:45.035Z,42.00
2019-01-11T00:07:48.780Z,44.87
2019-01-11T00:12:52.523Z,43.43
2019-01-11T00:17:56.343Z,44.20
2019-01-11T00:23:00.011Z,43.83
2019-01-11T00:28:03.780Z,43.77
2019-01-11T00:33:07.580Z,42.53
2019-01-11T00:38:11.381Z,40.17
2019-01-11T00:43:15.569Z,38.13
2019-01-11T00:48:19.354Z,38.87
2019-01-11T00:53:23.067Z,35.40
2019-01-11T00:58:26.710Z,31.10
2019-01-11T01:03:30.466Z,29.40
2019-01-11T01:08:35.067Z,25.37
2019-01-11T01:13:38.792Z,24.20
2019-01-11T01:18:42.485Z,23.70
2019-01-11T01:23:46.239Z,24.27
2019-01-11T01:28:50.036Z,23.23
2019-01-11T01:33:54.030Z,22.00
2019-01-11T01:38:57.700Z,22.27
2019-01-11T01:44:01.370Z,19.90
2019-01-11T01:49:05.136Z,18.93
2019-01-11T01:54:08.849Z,18.80
2019-01-11T01:59:12.606Z,17.20
2019-01-11T02:04:16.284Z,16.43
2019-01-11T02:09:19.939Z,15.53
2019-01-11T02:14:23.671Z,14.33
2019-01-11T02:19:32.952Z,13.80
2019-01-11T02:24:32.968Z,10.97
2019-01-11T02:29:36.738Z,11.43
2019-01-11T02:34:40.431Z,10.20
2019-01-11T02:39:44.507Z,10.60
2019-01-11T02:44:48.513Z,10.50
2019-01-11T02:49:52.611Z,10.97
2019-01-11T02:54:56.298Z,10.10
2019-01-11T03:00:00.074Z,11.57
2019-01-11T03:05:03.777Z,9.93
2019-01-11T03:10:11.202Z,10.50
2019-01-11T03:15:15.437Z,10.23
2019-01-11T03:20:19.321Z,9.90
2019-01-11T03:25:23.126Z,10.00
2019-01-11T03:30:26.903Z,9.10
2019-01-11T03:35:30.782Z,10.00
2019-01-11T03:40:34.520Z,9.77
2019-01-11T03:45:38.252Z,8.73
2019-01-11T03:50:42.046Z,7.80
2019-01-11T03:55:45.759Z,8.90
2019-01-11T04:00:49.438Z,7.90
2019-01-11T04:05:53.205Z,8.03
2019-01-11T04:10:56.952Z,7.00
2019-01-11T04:16:00.628Z,6.53
2019-01-11T04:21:04.386Z,6.80
2019-01-11T04:26:08.112Z,8.10
2019-01-11T04:31:11.751Z,6.90
2019-01-11T04:36:15.430Z,7.17
2019-01-11T04:41:19.173Z,6.50
2019-01-11T04:46:22.918Z,7.10
2019-01-11T04:51:26.699Z,6.60
2019-01-11T04:56:30.486Z,6.53
2019-01-11T05:01:34.297Z,6.50
2019-01-11T05:06:38.193Z,6.03
2019-01-11T05:11:41.952Z,7.13
2019-01-11T05:16:45.733Z,5.83
2019-01-11T05:21:49.493Z,6.20
2019-01-11T05:26:53.381Z,6.37
2019-01-11T05:31:57.270Z,5.67
2019-01-11T05:37:01.059Z,6.47
2019-01-11T05:42:04.864Z,5.53
2019-01-11T05:47:08.843Z,6.20
2019-01-11T05:52:12.547Z,6.30
2019-01-11T05:57:16.707Z,5.60
2019-01-11T06:02:20.777Z,6.73
2019-01-11T06:07:27.043Z,6.43
2019-01-11T06:12:30.897Z,5.77
2019-01-11T06:17:34.724Z,5.80
2019-01-11T06:22:38.427Z,5.70
2019-01-11T06:27:42.183Z,5.40
2019-01-11T06:32:45.862Z,5.00
2019-01-11T06:37:49.617Z,5.57
2019-01-11T06:42:53.357Z,5.00
2019-01-11T06:47:57.193Z,4.90
2019-01-11T06:53:01.237Z,5.40
2019-01-11T06:58:04.892Z,5.10
2019-01-11T07:03:08.610Z,4.87
2019-01-11T07:08:12.339Z,4.80
2019-01-11T07:13:16.318Z,4.90
2019-01-11T07:18:19.975Z,4.70
2019-01-11T07:23:23.812Z,4.40
2019-01-11T07:28:27.968Z,4.80
2019-01-11T07:33:31.733Z,4.23
2019-01-11T07:38:35.503Z,4.77
2019-01-11T07:43:39.223Z,5.07
2019-01-11T07:48:43.112Z,4.93
2019-01-11T07:53:46.939Z,5.13
2019-01-11T07:58:50.800Z,5.10
2019-01-11T08:03:54.680Z,5.30
2019-01-11T08:08:58.499Z,5.17
2019-01-11T08:14:02.279Z,5.70
2019-01-11T08:19:06.178Z,5.20
2019-01-11T08:24:10.023Z,4.70
2019-01-11T08:29:13.884Z,4.07
2019-01-11T08:34:17.779Z,4.20
2019-01-11T08:39:21.611Z,2.90
2019-01-11T08:44:25.423Z,2.77
2019-01-11T08:49:29.158Z,1.90
2019-01-11T08:54:32.886Z,2.07
2019-01-11T08:59:36.906Z,2.60
2019-01-11T09:04:40.926Z,1.93
2019-01-11T09:09:44.794Z,2.10
2019-01-11T09:14:50.429Z,2.23
2019-01-11T09:19:54.261Z,1.90
2019-01-11T09:24:58.273Z,1.97
2019-01-11T09:30:02.134Z,2.20
2019-01-11T09:35:06.334Z,6.10
2019-01-11T09:40:10.198Z,12.30
2019-01-11T09:45:14.023Z,19.57
2019-01-11T09:50:20.648Z,18.40
2019-01-11T09:55:24.794Z,17.63
2019-01-11T10:00:28.620Z,18.40
2019-01-11T10:05:32.582Z,15.93
2019-01-11T10:10:36.384Z,14.83
2019-01-11T10:15:40.199Z,14.23
2019-01-11T10:20:44.010Z,12.87
2019-01-11T10:25:47.839Z,12.47
2019-01-11T10:30:52.000Z,12.00
2019-01-11T10:35:55.923Z,11.77
2019-01-11T10:40:59.713Z,11.63
2019-01-11T10:46:09.060Z,9.87
2019-01-11T10:51:12.883Z,12.17
2019-01-11T10:56:16.712Z,13.27
2019-01-11T11:01:20.498Z,13.83
2019-01-11T11:06:24.491Z,12.80
2019-01-11T11:11:28.286Z,11.27
2019-01-11T11:16:32.990Z,9.63
2019-01-11T11:21:37.271Z,10.47
2019-01-11T11:26:41.099Z,10.03
2019-01-11T11:31:44.912Z,8.77
2019-01-11T11:36:48.822Z,8.80
2019-01-11T11:41:52.976Z,8.57
2019-01-11T11:46:56.771Z,8.40
2019-01-11T11:52:00.456Z,7.30
2019-01-11T11:57:04.226Z,7.60
2019-01-11T12:02:10.028Z,7.40
2019-01-11T12:07:13.813Z,7.00
2019-01-11T12:12:17.586Z,7.07
2019-01-11T12:17:21.342Z,8.10
2019-01-11T12:22:25.078Z,6.70
2019-01-11T12:27:28.966Z,6.97
2019-01-11T12:32:32.702Z,6.40
2019-01-11T12:37:36.561Z,5.50
2019-01-11T12:42:40.294Z,7.03
2019-01-11T12:47:44.177Z,4.60
2019-01-11T12:52:47.969Z,5.70
2019-01-11T12:57:51.729Z,5.60
2019-01-11T13:02:55.541Z,5.53
2019-01-11T13:07:59.412Z,5.90
2019-01-11T13:13:03.153Z,5.40
2019-01-11T13:18:06.897Z,4.47
2019-01-11T13:23:10.660Z,4.43
2019-01-11T13:28:14.387Z,5.30
2019-01-11T13:33:18.620Z,4.70
2019-01-11T13:38:22.529Z,4.37
2019-01-11T13:43:26.275Z,4.67
2019-01-11T13:48:30.136Z,4.30
2019-01-11T13:53:33.905Z,4.63
2019-01-11T13:58:37.653Z,4.40
2019-01-11T14:03:42.696Z,4.50
2019-01-11T14:08:46.431Z,3.70
2019-01-11T14:13:50.204Z,3.73
2019-01-11T14:18:54.017Z,3.50
2019-01-11T14:23:57.762Z,3.83
2019-01-11T14:29:01.663Z,3.40
2019-01-11T14:34:05.350Z,3.50
2019-01-11T14:39:09.388Z,2.80
2019-01-11T14:44:13.163Z,3.13
2019-01-11T14:49:16.933Z,2.20
2019-01-11T14:54:20.747Z,2.60
2019-01-11T14:59:24.712Z,2.60
2019-01-11T15:04:28.390Z,2.70
2019-01-11T15:09:32.118Z,2.77
2019-01-11T15:14:37.192Z,2.53
2019-01-11T15:19:40.958Z,2.13
2019-01-11T15:24:44.710Z,2.47
2019-01-11T15:29:48.473Z,2.90
2019-01-11T15:34:52.195Z,2.57
2019-01-11T15:39:56.071Z,2.90
2019-01-11T15:45:00.155Z,2.50
2019-01-11T15:50:03.911Z,2.53
2019-01-11T15:55:09.601Z,2.73
2019-01-11T16:00:19.526Z,2.73
2019-01-11T16:05:23.292Z,3.10
2019-01-11T16:10:27.043Z,3.07
2019-01-11T16:15:58.922Z,3.70
2019-01-11T16:21:02.710Z,3.43
2019-01-11T16:26:06.615Z,3.10
2019-01-11T16:31:10.321Z,3.50
2019-01-11T16:36:14.211Z,3.60
2019-01-11T16:41:18.195Z,2.77
2019-01-11T16:46:22.049Z,3.20
2019-01-11T16:51:25.896Z,3.73
2019-01-11T16:56:29.693Z,3.10
2019-01-11T17:01:33.543Z,4.50
2019-01-11T17:06:37.303Z,4.87
2019-01-11T17:11:41.104Z,4.80
2019-01-11T17:16:44.895Z,4.70
2019-01-11T17:21:48.709Z,5.00
2019-01-11T17:26:52.526Z,5.30
2019-01-11T17:31:56.231Z,4.93
2019-01-11T17:37:19.319Z,6.43
2019-01-11T17:42:23.184Z,5.70
2019-01-11T17:47:46.303Z,5.67
2019-01-11T17:52:50.050Z,6.40
2019-01-11T17:57:53.837Z,5.90
2019-01-11T18:02:57.598Z,5.50
2019-01-11T18:08:01.340Z,5.30
2019-01-11T18:13:05.636Z,5.70
2019-01-11T18:18:09.450Z,4.57
2019-01-11T18:23:13.286Z,4.97
2019-01-11T18:28:17.066Z,4.73
2019-01-11T18:33:20.921Z,4.73
2019-01-11T18:38:24.879Z,4.20
2019-01-11T18:43:28.577Z,4.40
2019-01-11T18:48:32.349Z,3.97
2019-01-11T18:53:36.147Z,4.40
2019-01-11T18:58:39.930Z,4.10
2019-01-11T19:03:43.686Z,4.30
2019-01-11T19:08:47.567Z,4.70
2019-01-11T19:13:51.287Z,4.33
2019-01-11T19:18:55.383Z,4.27
2019-01-11T19:23:59.237Z,4.10
2019-01-11T19:29:03.044Z,4.30
2019-01-11T19:34:06.873Z,5.00
2019-01-11T19:39:10.921Z,6.00
2019-01-11T19:44:14.715Z,6.10
2019-01-11T19:49:18.494Z,6.37
2019-01-11T19:54:22.348Z,7.40
2019-01-11T19:59:26.453Z,7.17
2019-01-11T20:04:30.310Z,6.23
2019-01-11T20:09:34.437Z,7.77
2019-01-11T20:14:38.276Z,5.80
2019-01-11T20:19:42.207Z,7.50
2019-01-11T20:24:47.197Z,7.07
2019-01-11T20:29:51.038Z,5.90
2019-01-11T20:34:54.782Z,6.33
2019-01-11T20:39:58.497Z,6.40
2019-01-11T20:45:03.313Z,6.23
2019-01-11T20:50:09.140Z,7.47
2019-01-11T20:55:12.876Z,7.07
2019-01-11T21:00:19.530Z,6.80
2019-01-11T21:05:23.363Z,7.70
2019-01-11T21:10:27.091Z,10.50
2019-01-11T21:15:30.841Z,10.90
2019-01-11T21:20:34.646Z,9.23
2019-01-11T21:25:38.502Z,8.67
2019-01-11T21:30:42.335Z,7.07
2019-01-11T21:35:46.171Z,6.50
2019-01-11T21:40:50.048Z,5.80
2019-01-11T21:45:53.794Z,5.67
2019-01-11T21:50:57.663Z,5.40
2019-01-11T21:56:01.567Z,5.60
2019-01-11T22:01:05.458Z,5.07
2019-01-11T22:06:09.250Z,4.93
2019-01-11T22:11:12.982Z,4.90
2019-01-11T22:16:16.812Z,6.70
2019-01-11T22:21:20.531Z,5.33
2019-01-11T22:26:24.229Z,6.10
2019-01-11T22:31:27.978Z,6.10
2019-01-11T22:36:31.804Z,5.57
2019-01-11T22:41:35.654Z,6.30
2019-01-11T22:46:39.400Z,5.97
2019-01-11T22:51:44.531Z,6.20
2019-01-11T22:56:48.508Z,7.10
2019-01-11T23:02:05.055Z,6.67
2019-01-11T23:07:37.573Z,7.73
2019-01-11T23:12:50.082Z,12.57
2019-01-11T23:18:14.779Z,10.70
2019-01-11T23:23:18.575Z,10.10
2019-01-11T23:28:22.298Z,10.53
2019-01-11T23:33:25.980Z,8.90
2019-01-11T23:38:29.720Z,9.13
2019-01-11T23:43:33.544Z,8.80
2019-01-11T23:48:37.266Z,8.83
2019-01-11T23:53:40.950Z,8.67
2019-01-11T23:58:44.716Z,8.87
